Time;durP1;ratioP1;P1;durP2;ratioP2;P2;SDS_P1;SDS_P2;PMS_P1;PMS_P2;Temp;Humidity;BMP_temperature;BMP_pressure;BME280_temperature;BME280_humidity;BME280_pressure;Samples;Min_cycle;Max_cycle;Signal;HPM_P1;HPM_P2
2023/08/18 00:02:03;;;;;;;0.10;0.10;;;;;;;;;;5111628;28;20075;-57
2023/08/18 00:04:28;;;;;;;0.10;0.10;;;;;;;;;;5108689;28;20052;-57
2023/08/18 00:06:54;;;;;;;0.20;0.20;;;;;;;;;;5106164;28;20254;-57
2023/08/18 00:09:20;;;;;;;0.10;0.10;;;;;;;;;;5092046;28;20044;-57
2023/08/18 00:11:45;;;;;;;0.10;0.10;;;;;;;;;;5102688;28;20051;-57
2023/08/18 00:14:11;;;;;;;0.10;0.10;;;;;;;;;;5099942;28;20189;-57
2023/08/18 00:16:36;;;;;;;0.10;0.10;;;;;;;;;;5102382;28;20728;-57
2023/08/18 00:19:02;;;;;;;0.10;0.10;;;;;;;;;;5105073;28;20400;-56
2023/08/18 00:21:28;;;;;;;0.10;0.10;;;;;;;;;;5107879;28;20664;-56
2023/08/18 00:23:53;;;;;;;0.63;0.20;;;;;;;;;;5114300;28;20047;-56
2023/08/18 00:26:19;;;;;;;0.20;0.20;;;;;;;;;;5101643;28;20080;-57
2023/08/18 00:28:44;;;;;;;0.10;0.10;;;;;;;;;;5092445;28;20052;-57
2023/08/18 00:31:10;;;;;;;0.10;0.10;;;;;;;;;;5100360;28;20696;-57
2023/08/18 00:33:35;;;;;;;0.10;0.10;;;;;;;;;;5101681;28;20381;-57
2023/08/18 00:36:01;;;;;;;0.10;0.10;;;;;;;;;;5100986;28;20286;-57
2023/08/18 00:38:26;;;;;;;0.10;0.10;;;;;;;;;;5101956;28;20468;-57
2023/08/18 00:40:54;;;;;;;0.20;0.20;;;;;;;;;;5095885;28;20365;-57
2023/08/18 00:43:19;;;;;;;0.10;0.10;;;;;;;;;;5099276;28;20040;-57
2023/08/18 00:45:45;;;;;;;0.10;0.10;;;;;;;;;;5120917;28;20050;-57
2023/08/18 00:48:10;;;;;;;0.10;0.10;;;;;;;;;;5114452;28;20043;-57
2023/08/18 00:50:36;;;;;;;0.10;0.10;;;;;;;;;;5103380;28;20420;-57
2023/08/18 00:53:02;;;;;;;0.10;0.10;;;;;;;;;;5103073;28;20339;-57
2023/08/18 00:55:29;;;;;;;0.20;0.20;;;;;;;;;;5102935;28;20043;-56
2023/08/18 00:57:55;;;;;;;0.13;0.13;;;;;;;;;;5117644;28;20487;-57
2023/08/18 01:00:23;;;;;;;0.10;0.10;;;;;;;;;;5099325;28;20044;-57
2023/08/18 01:02:49;;;;;;;0.17;0.17;;;;;;;;;;5110961;28;20040;-56
2023/08/18 01:05:15;;;;;;;0.10;0.10;;;;;;;;;;5122213;28;20221;-57
2023/08/18 01:07:40;;;;;;;0.10;0.10;;;;;;;;;;5123244;28;20476;-57
2023/08/18 01:10:06;;;;;;;0.10;0.10;;;;;;;;;;5114462;28;20047;-57
2023/08/18 01:12:42;;;;;;;0.10;0.10;;;;;;;;;;5103588;28;20051;-57
2023/08/18 01:15:15;;;;;;;0.10;0.10;;;;;;;;;;5102688;28;20047;-57
2023/08/18 01:17:46;;;;;;;0.10;0.10;;;;;;;;;;5103598;28;20314;-57
2023/08/18 01:20:12;;;;;;;0.10;0.10;;;;;;;;;;5105919;28;20155;-57
2023/08/18 01:22:39;;;;;;;0.10;0.10;;;;;;;;;;5102190;28;20051;-57
2023/08/18 01:25:05;;;;;;;0.10;0.10;;;;;;;;;;5105969;28;20561;-57
2023/08/18 01:27:31;;;;;;;0.10;0.10;;;;;;;;;;5113980;28;20040;-57
2023/08/18 01:29:57;;;;;;;0.10;0.10;;;;;;;;;;5086946;28;20044;-57
2023/08/18 01:32:28;;;;;;;0.10;0.10;;;;;;;;;;5094015;28;20518;-57
2023/08/18 01:34:55;;;;;;;0.10;0.10;;;;;;;;;;5105518;28;20378;-57
2023/08/18 01:37:21;;;;;;;0.17;0.17;;;;;;;;;;5107787;28;20224;-57
2023/08/18 01:39:47;;;;;;;0.10;0.10;;;;;;;;;;5099896;28;20090;-57
2023/08/18 01:42:13;;;;;;;0.32;0.32;;;;;;;;;;5102208;28;20043;-57
2023/08/18 01:44:39;;;;;;;0.10;0.10;;;;;;;;;;5105142;28;20047;-57
2023/08/18 01:47:04;;;;;;;0.10;0.10;;;;;;;;;;5104660;28;20046;-57
2023/08/18 01:49:30;;;;;;;0.20;0.20;;;;;;;;;;5101401;28;20058;-56
2023/08/18 01:51:55;;;;;;;0.10;0.10;;;;;;;;;;5101539;28;20466;-57
2023/08/18 01:54:21;;;;;;;0.17;0.17;;;;;;;;;;5109880;28;20069;-57
2023/08/18 01:56:46;;;;;;;0.10;0.10;;;;;;;;;;5103233;28;20047;-57
2023/08/18 01:59:13;;;;;;;0.13;0.13;;;;;;;;;;5101976;28;20052;-57
2023/08/18 02:01:39;;;;;;;0.20;0.20;;;;;;;;;;5098106;28;20043;-57
2023/08/18 02:04:04;;;;;;;0.10;0.10;;;;;;;;;;5097849;28;20116;-57
2023/08/18 02:06:31;;;;;;;0.10;0.10;;;;;;;;;;5102922;28;20047;-57
2023/08/18 02:08:57;;;;;;;0.10;0.10;;;;;;;;;;5101472;28;20051;-57
2023/08/18 02:11:22;;;;;;;0.10;0.10;;;;;;;;;;5104021;28;20055;-57
2023/08/18 02:13:48;;;;;;;0.20;0.20;;;;;;;;;;5109000;28;20040;-56
2023/08/18 02:16:13;;;;;;;0.20;0.20;;;;;;;;;;5122175;28;20092;-57
2023/08/18 02:18:39;;;;;;;0.20;0.20;;;;;;;;;;5113475;28;20334;-57
2023/08/18 02:21:05;;;;;;;0.15;0.15;;;;;;;;;;5107871;28;20163;-57
2023/08/18 02:23:30;;;;;;;0.10;0.10;;;;;;;;;;5101110;28;20134;-56
2023/08/18 02:26:00;;;;;;;0.10;0.10;;;;;;;;;;5102419;28;20058;-56
2023/08/18 02:28:25;;;;;;;0.20;0.20;;;;;;;;;;5100194;28;20244;-57
2023/08/18 02:30:59;;;;;;;0.10;0.10;;;;;;;;;;5094484;28;20036;-57
2023/08/18 02:33:24;;;;;;;0.10;0.10;;;;;;;;;;5087234;28;20051;-57
2023/08/18 02:35:50;;;;;;;0.10;0.10;;;;;;;;;;5103745;28;20094;-57
2023/08/18 02:38:15;;;;;;;0.10;0.10;;;;;;;;;;5091663;28;20039;-57
2023/08/18 02:40:41;;;;;;;0.10;0.10;;;;;;;;;;5095709;28;20078;-56
2023/08/18 02:43:07;;;;;;;0.10;0.10;;;;;;;;;;5103751;28;20086;-56
2023/08/18 02:45:32;;;;;;;0.10;0.10;;;;;;;;;;5103156;28;20442;-57
2023/08/18 02:47:58;;;;;;;0.10;0.10;;;;;;;;;;5101308;28;20055;-57
2023/08/18 02:50:24;;;;;;;0.10;0.10;;;;;;;;;;5098863;28;20039;-57
2023/08/18 02:52:49;;;;;;;0.10;0.10;;;;;;;;;;5101637;28;20043;-57
2023/08/18 02:55:15;;;;;;;0.10;0.10;;;;;;;;;;5106767;28;20051;-57
2023/08/18 02:57:40;;;;;;;0.10;0.10;;;;;;;;;;5121262;28;20706;-57
2023/08/18 03:00:06;;;;;;;0.15;0.15;;;;;;;;;;5095236;28;20068;-57
2023/08/18 03:02:32;;;;;;;0.10;0.10;;;;;;;;;;5107430;27;20078;-57
2023/08/18 03:04:57;;;;;;;0.10;0.10;;;;;;;;;;5102183;28;20079;-57
2023/08/18 03:07:23;;;;;;;0.10;0.10;;;;;;;;;;5117136;28;20039;-57
2023/08/18 03:09:48;;;;;;;0.10;0.10;;;;;;;;;;5100825;28;20105;-56
2023/08/18 03:12:15;;;;;;;0.10;0.10;;;;;;;;;;5086805;28;20043;-57
2023/08/18 03:14:41;;;;;;;0.20;0.20;;;;;;;;;;5119345;28;20122;-57
2023/08/18 03:17:07;;;;;;;0.10;0.10;;;;;;;;;;5116269;28;20387;-57
2023/08/18 03:19:32;;;;;;;0.10;0.10;;;;;;;;;;5087435;28;20040;-57
2023/08/18 03:21:58;;;;;;;0.10;0.10;;;;;;;;;;5112666;28;20043;-57
2023/08/18 03:24:24;;;;;;;0.10;0.10;;;;;;;;;;5104351;28;20055;-56
2023/08/18 03:26:50;;;;;;;0.10;0.10;;;;;;;;;;5104206;28;20093;-57
2023/08/18 03:29:15;;;;;;;0.10;0.10;;;;;;;;;;5100334;28;20055;-57
2023/08/18 03:31:41;;;;;;;0.10;0.10;;;;;;;;;;5100582;28;20047;-57
2023/08/18 03:34:07;;;;;;;0.10;0.10;;;;;;;;;;5101135;28;20332;-57
2023/08/18 03:36:32;;;;;;;0.10;0.10;;;;;;;;;;5101840;28;20077;-57
2023/08/18 03:38:58;;;;;;;0.20;0.20;;;;;;;;;;5100302;28;20043;-57
2023/08/18 03:41:24;;;;;;;0.10;0.10;;;;;;;;;;5098450;28;21483;-57
2023/08/18 03:43:49;;;;;;;0.10;0.10;;;;;;;;;;5103327;28;20066;-57
2023/08/18 03:46:18;;;;;;;0.10;0.10;;;;;;;;;;5101324;28;20047;-57
2023/08/18 03:48:43;;;;;;;;;;;;;;;;;;5101630;28;20328;-57
2023/08/18 03:51:09;;;;;;;0.10;0.10;;;;;;;;;;5098984;28;19949;-57
2023/08/18 03:53:34;;;;;;;0.17;0.17;;;;;;;;;;5109612;28;20078;-57
2023/08/18 03:56:02;;;;;;;0.10;0.10;;;;;;;;;;5100440;28;20062;-57
2023/08/18 03:58:27;;;;;;;0.10;0.10;;;;;;;;;;5105787;28;20442;-57
2023/08/18 04:01:01;;;;;;;0.10;0.10;;;;;;;;;;5090753;28;20519;-57
2023/08/18 04:03:27;;;;;;;0.10;0.10;;;;;;;;;;5101941;28;20078;-56
2023/08/18 04:05:53;;;;;;;0.10;0.10;;;;;;;;;;5119309;28;20074;-56
2023/08/18 04:08:19;;;;;;;0.10;0.10;;;;;;;;;;5104228;28;20793;-56
2023/08/18 04:10:44;;;;;;;0.10;0.10;;;;;;;;;;5092863;28;20048;-57
2023/08/18 04:13:10;;;;;;;0.10;0.10;;;;;;;;;;5082832;28;20143;-57
2023/08/18 04:15:35;;;;;;;0.10;0.10;;;;;;;;;;5104013;28;20048;-57
2023/08/18 04:18:01;;;;;;;0.10;0.10;;;;;;;;;;5110868;28;20520;-57
2023/08/18 04:20:27;;;;;;;0.10;0.10;;;;;;;;;;5090293;28;20055;-56
2023/08/18 04:22:52;;;;;;;0.10;0.10;;;;;;;;;;5104973;28;20101;-57
2023/08/18 04:25:18;;;;;;;0.10;0.10;;;;;;;;;;5119783;28;20054;-57
2023/08/18 04:27:43;;;;;;;0.10;0.10;;;;;;;;;;5105770;28;20589;-57
2023/08/18 04:30:10;;;;;;;0.10;0.10;;;;;;;;;;5092707;28;20051;-57
2023/08/18 04:32:36;;;;;;;0.10;0.10;;;;;;;;;;5105368;28;20086;-57
2023/08/18 04:35:01;;;;;;;0.10;0.10;;;;;;;;;;5091120;28;20429;-57
2023/08/18 04:37:27;;;;;;;0.10;0.10;;;;;;;;;;5099119;28;20244;-57
2023/08/18 04:39:52;;;;;;;0.10;0.10;;;;;;;;;;5097136;28;20540;-57
2023/08/18 04:42:18;;;;;;;0.10;0.10;;;;;;;;;;5103615;28;20419;-57
2023/08/18 04:44:44;;;;;;;0.10;0.10;;;;;;;;;;5122149;28;20084;-57
2023/08/18 04:47:09;;;;;;;0.10;0.10;;;;;;;;;;5117912;28;20519;-57
2023/08/18 04:49:35;;;;;;;0.10;0.10;;;;;;;;;;5101193;28;20438;-57
2023/08/18 04:52:00;;;;;;;0.10;0.10;;;;;;;;;;5097702;28;20051;-57
2023/08/18 04:54:26;;;;;;;0.10;0.10;;;;;;;;;;5094523;28;20488;-56
2023/08/18 04:56:59;;;;;;;0.10;0.10;;;;;;;;;;5103299;28;20102;-56
2023/08/18 04:59:25;;;;;;;0.10;0.10;;;;;;;;;;5100978;28;20053;-56
2023/08/18 05:01:51;;;;;;;0.10;0.10;;;;;;;;;;5108842;28;20051;-57
2023/08/18 05:04:17;;;;;;;0.10;0.10;;;;;;;;;;5091603;28;20072;-56
2023/08/18 05:06:43;;;;;;;0.10;0.10;;;;;;;;;;5112409;28;20048;-57
2023/08/18 05:09:08;;;;;;;0.10;0.10;;;;;;;;;;5106524;28;20487;-57
2023/08/18 05:11:34;;;;;;;0.17;0.17;;;;;;;;;;5103868;28;20525;-57
2023/08/18 05:13:59;;;;;;;0.10;0.10;;;;;;;;;;5089829;28;20123;-57
2023/08/18 05:16:25;;;;;;;0.10;0.10;;;;;;;;;;5107553;28;20537;-57
2023/08/18 05:18:51;;;;;;;0.10;0.10;;;;;;;;;;5113790;28;20074;-57
2023/08/18 05:21:18;;;;;;;0.10;0.10;;;;;;;;;;5087149;28;20234;-56
2023/08/18 05:23:43;;;;;;;0.10;0.10;;;;;;;;;;5105325;27;20340;-56
2023/08/18 05:26:09;;;;;;;0.10;0.10;;;;;;;;;;5104163;28;20043;-57
2023/08/18 05:28:34;;;;;;;0.10;0.10;;;;;;;;;;5101502;28;20161;-57
2023/08/18 05:31:00;;;;;;;0.10;0.10;;;;;;;;;;5097362;28;20317;-57
2023/08/18 05:33:26;;;;;;;0.10;0.10;;;;;;;;;;5105117;28;20062;-57
2023/08/18 05:35:51;;;;;;;0.10;0.10;;;;;;;;;;5096824;28;20049;-57
2023/08/18 05:38:17;;;;;;;0.10;0.10;;;;;;;;;;5100636;28;20051;-57
2023/08/18 05:40:44;;;;;;;0.10;0.10;;;;;;;;;;5099095;28;20062;-57
2023/08/18 05:43:10;;;;;;;0.10;0.10;;;;;;;;;;5088958;28;20058;-57
2023/08/18 05:45:37;;;;;;;0.13;0.13;;;;;;;;;;5092478;28;20039;-56
2023/08/18 05:48:04;;;;;;;0.10;0.10;;;;;;;;;;5100714;28;20053;-56
2023/08/18 05:50:29;;;;;;;0.10;0.10;;;;;;;;;;5093177;28;20047;-56
2023/08/18 05:52:55;;;;;;;0.10;0.10;;;;;;;;;;5086973;28;20112;-56
2023/08/18 05:55:22;;;;;;;0.10;0.10;;;;;;;;;;5073951;28;20415;-56
2023/08/18 05:57:47;;;;;;;0.10;0.10;;;;;;;;;;5082402;28;20074;-56
2023/08/18 06:00:13;;;;;;;0.10;0.10;;;;;;;;;;5086920;28;20918;-56
2023/08/18 06:02:39;;;;;;;0.10;0.10;;;;;;;;;;5072879;28;20101;-56
2023/08/18 06:05:05;;;;;;;0.10;0.10;;;;;;;;;;5075940;28;20142;-56
2023/08/18 06:07:30;;;;;;;0.10;0.10;;;;;;;;;;5064097;28;20351;-56
2023/08/18 06:09:56;;;;;;;0.10;0.10;;;;;;;;;;5069798;28;20447;-56
2023/08/18 06:12:21;;;;;;;0.10;0.10;;;;;;;;;;5082973;28;20048;-56
2023/08/18 06:14:47;;;;;;;0.10;0.10;;;;;;;;;;5090520;28;20054;-56
2023/08/18 06:17:13;;;;;;;0.10;0.10;;;;;;;;;;5085283;28;20110;-56
2023/08/18 06:19:38;;;;;;;0.10;0.10;;;;;;;;;;5087086;28;20035;-56
2023/08/18 06:22:04;;;;;;;0.10;0.10;;;;;;;;;;5094488;28;20436;-56
2023/08/18 06:24:29;;;;;;;0.10;0.10;;;;;;;;;;5088198;28;20110;-56
2023/08/18 06:26:55;;;;;;;0.10;0.10;;;;;;;;;;5090470;28;20108;-56
2023/08/18 06:29:20;;;;;;;0.10;0.10;;;;;;;;;;5091075;28;20048;-56
2023/08/18 06:31:46;;;;;;;0.17;0.17;;;;;;;;;;5088369;28;20131;-56
2023/08/18 06:34:11;;;;;;;0.10;0.10;;;;;;;;;;5089153;28;20052;-56
2023/08/18 06:36:37;;;;;;;0.10;0.10;;;;;;;;;;5094836;27;20478;-57
2023/08/18 06:39:03;;;;;;;0.10;0.10;;;;;;;;;;5090718;28;20448;-56
2023/08/18 06:41:28;;;;;;;0.10;0.10;;;;;;;;;;5086402;28;20124;-56
2023/08/18 06:43:54;;;;;;;0.20;0.20;;;;;;;;;;5084630;28;20514;-56
2023/08/18 06:46:20;;;;;;;0.10;0.10;;;;;;;;;;5091218;28;20047;-56
2023/08/18 06:48:45;;;;;;;0.10;0.10;;;;;;;;;;5079313;28;20044;-56
2023/08/18 06:51:11;;;;;;;0.10;0.10;;;;;;;;;;5079463;28;20035;-56
2023/08/18 06:53:36;;;;;;;0.10;0.10;;;;;;;;;;5077870;28;20135;-56
2023/08/18 06:56:05;;;;;;;0.10;0.10;;;;;;;;;;5079809;28;20327;-56
2023/08/18 06:58:31;;;;;;;0.10;0.10;;;;;;;;;;5072624;28;20623;-56
2023/08/18 07:00:57;;;;;;;0.10;0.10;;;;;;;;;;5068772;28;20342;-56
2023/08/18 07:03:23;;;;;;;0.10;0.10;;;;;;;;;;5070685;28;20466;-56
2023/08/18 07:05:48;;;;;;;0.10;0.10;;;;;;;;;;5058814;28;20052;-56
2023/08/18 07:08:14;;;;;;;0.10;0.10;;;;;;;;;;5061121;28;20630;-56
2023/08/18 07:10:40;;;;;;;0.10;0.10;;;;;;;;;;5068000;28;20108;-56
2023/08/18 07:13:05;;;;;;;0.10;0.10;;;;;;;;;;5073344;28;20043;-56
2023/08/18 07:15:32;;;;;;;0.10;0.10;;;;;;;;;;5085634;28;20048;-56
2023/08/18 07:17:57;;;;;;;0.10;0.10;;;;;;;;;;5086444;28;20050;-56
2023/08/18 07:20:23;;;;;;;0.10;0.10;;;;;;;;;;5086310;28;20055;-56
2023/08/18 07:22:49;;;;;;;0.10;0.10;;;;;;;;;;5090454;28;20058;-56
2023/08/18 07:25:14;;;;;;;0.10;0.10;;;;;;;;;;5086717;28;20142;-56
2023/08/18 07:27:40;;;;;;;0.10;0.10;;;;;;;;;;5091928;28;20047;-56
2023/08/18 07:30:06;;;;;;;0.10;0.10;;;;;;;;;;5089257;28;20055;-56
2023/08/18 07:32:31;;;;;;;0.10;0.10;;;;;;;;;;5087960;28;20055;-56
2023/08/18 07:34:58;;;;;;;0.10;0.10;;;;;;;;;;5089598;28;20066;-56
2023/08/18 07:37:24;;;;;;;0.20;0.20;;;;;;;;;;5093507;28;20126;-56
2023/08/18 07:40:09;;;;;;;0.10;0.10;;;;;;;;;;5075540;28;20047;-56
2023/08/18 07:42:36;;;;;;;0.10;0.10;;;;;;;;;;5093173;28;20347;-56
2023/08/18 07:45:02;;;;;;;0.10;0.10;;;;;;;;;;5092051;28;20488;-56
2023/08/18 07:47:28;;;;;;;0.10;0.10;;;;;;;;;;5096652;28;20400;-56
2023/08/18 07:49:54;;;;;;;0.10;0.10;;;;;;;;;;5097728;28;20576;-57
2023/08/18 07:52:19;;;;;;;0.10;0.10;;;;;;;;;;5092355;28;20454;-56
2023/08/18 07:54:45;;;;;;;0.10;0.10;;;;;;;;;;5093930;28;20373;-56
2023/08/18 07:57:10;;;;;;;0.10;0.10;;;;;;;;;;5099740;28;20153;-56
2023/08/18 07:59:36;;;;;;;0.10;0.10;;;;;;;;;;5092517;28;20410;-56
2023/08/18 08:02:02;;;;;;;0.20;0.20;;;;;;;;;;5092857;28;20047;-56
2023/08/18 08:04:38;;;;;;;0.10;0.10;;;;;;;;;;5084017;28;20236;-56
2023/08/18 08:07:04;;;;;;;0.10;0.10;;;;;;;;;;5073252;28;20051;-56
2023/08/18 08:09:30;;;;;;;0.10;0.10;;;;;;;;;;5078772;28;20089;-56
2023/08/18 08:11:56;;;;;;;0.10;0.10;;;;;;;;;;5087032;28;20130;-56
2023/08/18 08:14:22;;;;;;;0.10;0.10;;;;;;;;;;5091445;28;20077;-56
2023/08/18 08:16:47;;;;;;;0.20;0.20;;;;;;;;;;5095823;28;20039;-56
2023/08/18 08:19:13;;;;;;;0.10;0.10;;;;;;;;;;5093840;28;20127;-57
2023/08/18 08:21:44;;;;;;;0.10;0.10;;;;;;;;;;5092071;28;20116;-57
2023/08/18 08:24:09;;;;;;;0.10;0.10;;;;;;;;;;5091328;28;20047;-57
2023/08/18 08:26:35;;;;;;;0.10;0.10;;;;;;;;;;5094151;28;20054;-57
2023/08/18 08:29:01;;;;;;;0.10;0.10;;;;;;;;;;5083706;28;20124;-56
2023/08/18 08:31:26;;;;;;;0.10;0.10;;;;;;;;;;5081109;28;20215;-57
2023/08/18 08:33:52;;;;;;;0.10;0.10;;;;;;;;;;5078518;28;20090;-57
2023/08/18 08:36:17;;;;;;;0.10;0.10;;;;;;;;;;5073976;28;20060;-57
2023/08/18 08:38:43;;;;;;;0.10;0.10;;;;;;;;;;5082087;28;20138;-57
2023/08/18 08:41:09;;;;;;;0.17;0.17;;;;;;;;;;5073422;28;20082;-56
2023/08/18 08:43:34;;;;;;;0.13;0.13;;;;;;;;;;5079757;28;20569;-56
2023/08/18 08:46:00;;;;;;;0.10;0.10;;;;;;;;;;5085501;28;20920;-59
2023/08/18 08:48:29;;;;;;;0.10;0.10;;;;;;;;;;5090808;28;20051;-56
2023/08/18 08:50:58;;;;;;;0.10;0.10;;;;;;;;;;5090440;28;20055;-56
2023/08/18 08:53:30;;;;;;;0.20;0.20;;;;;;;;;;5084540;28;20043;-56
2023/08/18 08:55:57;;;;;;;0.10;0.10;;;;;;;;;;5081139;28;20104;-56
2023/08/18 08:58:22;;;;;;;0.10;0.10;;;;;;;;;;5085325;28;20050;-56
2023/08/18 09:00:48;;;;;;;0.10;0.10;;;;;;;;;;5087108;28;20047;-56
2023/08/18 09:03:14;;;;;;;0.10;0.10;;;;;;;;;;5089414;28;20229;-56
2023/08/18 09:05:40;;;;;;;0.20;0.20;;;;;;;;;;5088569;28;20048;-56
2023/08/18 09:08:06;;;;;;;0.10;0.10;;;;;;;;;;5085471;28;20048;-56
2023/08/18 09:10:33;;;;;;;0.10;0.10;;;;;;;;;;5086912;28;20689;-56
2023/08/18 09:12:58;;;;;;;0.10;0.10;;;;;;;;;;5087650;28;20067;-56
2023/08/18 09:15:24;;;;;;;0.10;0.10;;;;;;;;;;5086513;28;20051;-57
2023/08/18 09:17:51;;;;;;;0.10;0.10;;;;;;;;;;5086692;28;20043;-56
2023/08/18 09:20:16;;;;;;;0.10;0.10;;;;;;;;;;5101348;28;20133;-56
2023/08/18 09:22:42;;;;;;;0.10;0.10;;;;;;;;;;5091015;28;20048;-56
2023/08/18 09:25:11;;;;;;;0.10;0.10;;;;;;;;;;5095323;28;20102;-57
2023/08/18 09:27:37;;;;;;;0.10;0.10;;;;;;;;;;5086063;28;20058;-56
2023/08/18 09:30:03;;;;;;;0.10;0.10;;;;;;;;;;5088074;28;20055;-56
2023/08/18 09:32:28;;;;;;;0.20;0.20;;;;;;;;;;5093565;28;20047;-56
2023/08/18 09:34:56;;;;;;;0.10;0.10;;;;;;;;;;5081059;28;20420;-56
2023/08/18 09:37:22;;;;;;;;;;;;;;;;;;5083020;28;20051;-56
2023/08/18 09:39:52;;;;;;;0.10;0.10;;;;;;;;;;5074990;28;19931;-56
2023/08/18 09:42:17;;;;;;;0.10;0.10;;;;;;;;;;5071648;28;20494;-57
2023/08/18 09:44:43;;;;;;;0.10;0.10;;;;;;;;;;5084351;28;20495;-56
2023/08/18 09:47:10;;;;;;;0.10;0.10;;;;;;;;;;5085782;28;20089;-56
2023/08/18 09:49:39;;;;;;;0.10;0.10;;;;;;;;;;5087874;28;20124;-56
2023/08/18 09:52:05;;;;;;;0.10;0.10;;;;;;;;;;5080152;28;20431;-56
2023/08/18 09:54:34;;;;;;;0.10;0.10;;;;;;;;;;5091909;28;20047;-56
2023/08/18 09:57:03;;;;;;;0.10;0.10;;;;;;;;;;5088736;28;20173;-56
2023/08/18 09:59:34;;;;;;;0.10;0.10;;;;;;;;;;5088109;28;20105;-56
2023/08/18 10:02:00;;;;;;;0.10;0.10;;;;;;;;;;5085775;27;20463;-56
2023/08/18 10:04:25;;;;;;;0.10;0.10;;;;;;;;;;5093331;28;20575;-56
2023/08/18 10:06:53;;;;;;;0.10;0.10;;;;;;;;;;5084532;28;20406;-57
2023/08/18 10:09:20;;;;;;;0.10;0.10;;;;;;;;;;5085154;28;20044;-56
2023/08/18 10:11:46;;;;;;;0.10;0.10;;;;;;;;;;5082238;28;20047;-56
2023/08/18 10:14:21;;;;;;;0.17;0.17;;;;;;;;;;5087666;28;20059;-57
2023/08/18 10:16:47;;;;;;;0.10;0.10;;;;;;;;;;5091261;28;20144;-56
2023/08/18 10:19:12;;;;;;;0.10;0.10;;;;;;;;;;5087579;28;20071;-57
2023/08/18 10:21:38;;;;;;;0.10;0.10;;;;;;;;;;5081538;28;20047;-56
2023/08/18 10:24:04;;;;;;;0.10;0.10;;;;;;;;;;5083282;28;20051;-56
2023/08/18 10:26:32;;;;;;;0.10;0.10;;;;;;;;;;5088153;28;20066;-56
2023/08/18 10:29:13;;;;;;;0.10;0.10;;;;;;;;;;5086731;28;20540;-56
2023/08/18 10:31:56;;;;;;;0.10;0.10;;;;;;;;;;5082163;28;20050;-56
2023/08/18 10:34:22;;;;;;;0.10;0.10;;;;;;;;;;5086150;28;20043;-56
2023/08/18 10:36:48;;;;;;;0.20;0.20;;;;;;;;;;5092829;28;20040;-56
2023/08/18 10:39:36;;;;;;;0.10;0.10;;;;;;;;;;5082669;28;20089;-56
2023/08/18 10:42:03;;;;;;;0.10;0.10;;;;;;;;;;5078114;28;20642;-56
2023/08/18 10:44:28;;;;;;;0.10;0.10;;;;;;;;;;5084250;28;20059;-56
2023/08/18 10:46:54;;;;;;;0.13;0.10;;;;;;;;;;5082894;28;20326;-56
2023/08/18 10:49:20;;;;;;;0.10;0.10;;;;;;;;;;5091338;28;20392;-56
2023/08/18 10:51:48;;;;;;;0.10;0.10;;;;;;;;;;5086407;28;20415;-56
2023/08/18 10:54:14;;;;;;;0.10;0.10;;;;;;;;;;5091728;28;20115;-57
2023/08/18 10:56:40;;;;;;;0.10;0.10;;;;;;;;;;5086485;28;20634;-56
2023/08/18 10:59:06;;;;;;;0.10;0.10;;;;;;;;;;5090684;28;20044;-56
2023/08/18 11:01:31;;;;;;;0.10;0.10;;;;;;;;;;5095485;27;20050;-56
2023/08/18 11:03:57;;;;;;;0.10;0.10;;;;;;;;;;5080590;28;20043;-56
2023/08/18 11:06:26;;;;;;;0.10;0.10;;;;;;;;;;5088136;28;20134;-56
2023/08/18 11:08:53;;;;;;;0.10;0.10;;;;;;;;;;5094162;28;20051;-55
2023/08/18 11:11:19;;;;;;;0.10;0.10;;;;;;;;;;5084027;28;20051;-56
2023/08/18 11:13:45;;;;;;;0.10;0.10;;;;;;;;;;5090557;28;20066;-56
2023/08/18 11:16:10;;;;;;;0.10;0.10;;;;;;;;;;5081625;28;20060;-56
2023/08/18 11:18:36;;;;;;;0.10;0.10;;;;;;;;;;5087270;28;20153;-56
2023/08/18 11:21:03;;;;;;;0.10;0.10;;;;;;;;;;5093862;28;20043;-56
2023/08/18 11:23:28;;;;;;;0.10;0.10;;;;;;;;;;5095693;28;20039;-56
2023/08/18 11:25:54;;;;;;;0.13;0.13;;;;;;;;;;5091524;28;20048;-56
2023/08/18 11:28:20;;;;;;;0.10;0.10;;;;;;;;;;5086669;28;20086;-56
2023/08/18 11:30:45;;;;;;;0.10;0.10;;;;;;;;;;5091870;28;20049;-56
2023/08/18 11:33:11;;;;;;;0.17;0.17;;;;;;;;;;5084903;28;20048;-56
2023/08/18 11:35:37;;;;;;;0.10;0.10;;;;;;;;;;5087570;28;20055;-56
2023/08/18 11:38:02;;;;;;;0.38;0.22;;;;;;;;;;5094752;28;20068;-56
2023/08/18 11:40:28;;;;;;;0.10;0.10;;;;;;;;;;5086135;28;20044;-57
2023/08/18 11:42:53;;;;;;;0.10;0.10;;;;;;;;;;5082170;28;20044;-57
2023/08/18 11:45:23;;;;;;;0.10;0.10;;;;;;;;;;5083304;28;20065;-56
2023/08/18 11:48:04;;;;;;;0.10;0.10;;;;;;;;;;5087901;28;20446;-56
2023/08/18 11:50:31;;;;;;;0.10;0.10;;;;;;;;;;5081913;28;20344;-56
2023/08/18 11:52:57;;;;;;;0.10;0.10;;;;;;;;;;5084971;28;20040;-56
2023/08/18 11:55:33;;;;;;;0.10;0.10;;;;;;;;;;5083957;28;20052;-56
2023/08/18 11:58:09;;;;;;;0.10;0.10;;;;;;;;;;5081986;28;20542;-56
2023/08/18 12:00:37;;;;;;;0.10;0.10;;;;;;;;;;5095673;28;20074;-56
2023/08/18 12:03:03;;;;;;;0.10;0.10;;;;;;;;;;5094378;28;20044;-56
2023/08/18 12:05:30;;;;;;;0.10;0.10;;;;;;;;;;5103188;28;20099;-56
2023/08/18 12:07:57;;;;;;;0.10;0.10;;;;;;;;;;5094241;28;20359;-56
2023/08/18 12:10:23;;;;;;;0.10;0.10;;;;;;;;;;5099817;28;20047;-56
2023/08/18 12:12:52;;;;;;;0.10;0.10;;;;;;;;;;5077357;28;20093;-56
2023/08/18 12:15:18;;;;;;;0.10;0.10;;;;;;;;;;5082747;28;20052;-56
2023/08/18 12:17:44;;;;;;;0.10;0.10;;;;;;;;;;5097737;28;20508;-56
2023/08/18 12:20:09;;;;;;;0.10;0.10;;;;;;;;;;5088625;28;20059;-56
2023/08/18 12:22:35;;;;;;;0.10;0.10;;;;;;;;;;5090696;28;20122;-56
2023/08/18 12:25:02;;;;;;;0.10;0.10;;;;;;;;;;5095258;28;20416;-56
2023/08/18 12:27:29;;;;;;;0.10;0.10;;;;;;;;;;5088017;28;20051;-56
2023/08/18 12:29:55;;;;;;;0.10;0.10;;;;;;;;;;5100033;28;20420;-56
2023/08/18 12:32:21;;;;;;;0.10;0.10;;;;;;;;;;5093227;28;20099;-56
2023/08/18 12:34:50;;;;;;;0.17;0.17;;;;;;;;;;5095436;28;20222;-56
2023/08/18 12:37:17;;;;;;;0.10;0.10;;;;;;;;;;5100665;28;20047;-56
2023/08/18 12:39:42;;;;;;;0.10;0.10;;;;;;;;;;5108360;28;20043;-56
2023/08/18 12:42:08;;;;;;;0.10;0.10;;;;;;;;;;5093966;28;20130;-56
2023/08/18 12:44:34;;;;;;;0.10;0.10;;;;;;;;;;5102572;28;20059;-56
2023/08/18 12:46:59;;;;;;;0.10;0.10;;;;;;;;;;5110726;28;20520;-56
2023/08/18 12:49:25;;;;;;;0.10;0.10;;;;;;;;;;5096480;28;20096;-56
2023/08/18 12:51:51;;;;;;;0.10;0.10;;;;;;;;;;5090722;28;20080;-57
2023/08/18 12:54:16;;;;;;;0.10;0.10;;;;;;;;;;5102175;28;20332;-56
2023/08/18 12:56:42;;;;;;;0.10;0.10;;;;;;;;;;5097408;28;20055;-56
2023/08/18 12:59:07;;;;;;;0.10;0.10;;;;;;;;;;5100777;28;20040;-56
2023/08/18 13:01:34;;;;;;;0.10;0.10;;;;;;;;;;5096015;28;20521;-56
2023/08/18 13:04:03;;;;;;;0.10;0.10;;;;;;;;;;5100100;28;20047;-56
2023/08/18 13:06:28;;;;;;;0.10;0.10;;;;;;;;;;5103592;28;20511;-57
2023/08/18 13:08:54;;;;;;;0.10;0.10;;;;;;;;;;5119956;28;20070;-56
2023/08/18 13:11:19;;;;;;;0.10;0.10;;;;;;;;;;5091624;28;20087;-56
2023/08/18 13:13:45;;;;;;;0.13;0.13;;;;;;;;;;5120957;28;20499;-56
2023/08/18 13:16:10;;;;;;;0.17;0.17;;;;;;;;;;5091662;28;20105;-56
2023/08/18 13:18:36;;;;;;;0.10;0.10;;;;;;;;;;5081849;28;20135;-56
2023/08/18 13:21:08;;;;;;;0.10;0.10;;;;;;;;;;5099485;28;20138;-56
2023/08/18 13:23:34;;;;;;;0.10;0.10;;;;;;;;;;5100352;28;20455;-56
2023/08/18 13:25:59;;;;;;;0.10;0.10;;;;;;;;;;5102614;28;20392;-57
2023/08/18 13:28:25;;;;;;;0.10;0.10;;;;;;;;;;5102987;28;20073;-56
2023/08/18 13:30:51;;;;;;;0.10;0.10;;;;;;;;;;5105512;28;20057;-56
2023/08/18 13:33:16;;;;;;;0.10;0.10;;;;;;;;;;5114844;28;20050;-56
2023/08/18 13:35:42;;;;;;;0.10;0.10;;;;;;;;;;5103075;28;20048;-56
2023/08/18 13:38:07;;;;;;;0.17;0.17;;;;;;;;;;5100769;28;20076;-56
2023/08/18 13:40:33;;;;;;;0.10;0.10;;;;;;;;;;5106697;28;20047;-56
2023/08/18 13:42:58;;;;;;;0.10;0.10;;;;;;;;;;5101481;28;20449;-56
2023/08/18 13:45:24;;;;;;;0.35;0.30;;;;;;;;;;5115414;27;20062;-56
2023/08/18 13:47:50;;;;;;;0.10;0.10;;;;;;;;;;5121346;28;20448;-56
2023/08/18 13:50:15;;;;;;;0.28;0.22;;;;;;;;;;5116146;28;20048;-56
2023/08/18 13:52:41;;;;;;;0.10;0.10;;;;;;;;;;5107847;28;20407;-57
2023/08/18 13:55:06;;;;;;;0.10;0.10;;;;;;;;;;5102662;28;20158;-57
2023/08/18 13:57:32;;;;;;;0.10;0.10;;;;;;;;;;5102010;28;20047;-57
2023/08/18 13:59:58;;;;;;;0.10;0.10;;;;;;;;;;5102902;28;20150;-56
2023/08/18 14:02:23;;;;;;;0.10;0.10;;;;;;;;;;5098165;28;20042;-56
2023/08/18 14:04:50;;;;;;;0.10;0.10;;;;;;;;;;5122521;28;20103;-56
2023/08/18 14:07:16;;;;;;;0.10;0.10;;;;;;;;;;5119272;28;20051;-57
2023/08/18 14:09:41;;;;;;;0.10;0.10;;;;;;;;;;5103881;28;20454;-57
2023/08/18 14:12:07;;;;;;;0.10;0.10;;;;;;;;;;5096104;28;20054;-56
2023/08/18 14:14:32;;;;;;;0.25;0.25;;;;;;;;;;5103680;28;20077;-56
2023/08/18 14:16:59;;;;;;;0.10;0.10;;;;;;;;;;5102789;28;20039;-56
2023/08/18 14:19:27;;;;;;;0.10;0.10;;;;;;;;;;5103101;28;20047;-56
2023/08/18 14:21:54;;;;;;;0.10;0.10;;;;;;;;;;5091795;28;20132;-56
2023/08/18 14:24:19;;;;;;;0.10;0.10;;;;;;;;;;5092964;28;20055;-56
2023/08/18 14:26:45;;;;;;;0.10;0.10;;;;;;;;;;5098353;28;20312;-57
2023/08/18 14:29:14;;;;;;;0.10;0.10;;;;;;;;;;5101524;28;20397;-57
2023/08/18 14:31:39;;;;;;;0.10;0.10;;;;;;;;;;5087144;28;20127;-56
2023/08/18 14:34:05;;;;;;;0.22;0.22;;;;;;;;;;5113357;28;20110;-56
2023/08/18 14:36:31;;;;;;;0.10;0.10;;;;;;;;;;5110043;28;20047;-56
2023/08/18 14:38:58;;;;;;;0.10;0.10;;;;;;;;;;5103441;28;20079;-57